Terminal Aerodrome Forecast
Issued by NWS

Home | Current Version | Previous Version | Text Only | Print | Product List | Glossary On
Versions: 1 2 3 4 5 6 7 8 9 10 11 12
000
FTUS44 KOUN 021740
TAFCSM
TAF
KCSM 021740Z 0218/0318 04012KT P6SM SCT120 BKN200
     FM022200 09010KT P6SM BKN025 OVC100
     FM030300 07012KT 5SM -RA SCT007 OVC015
     FM030900 07010KT 3SM -RA OVC007=

USA.gov is the U.S. government's official web portal to all federal, state and local government web resources and services.